Portada
METAR-TAF:

METAR-TAF

Aeroports :

Amritsar, Índia

latitud: 31-38N, longitud: 074-52E, altitud: 229 m

Observació

L'informe es va fer fa 14 minuts, a les 17:00 UTC
Vent calma
Temperatura 14°C
Humitat 88%
Pressió 1015 hPa
Visibilitat: 2200 m
Núvols disperses a una alçada de 9000 ft
boirina

METAR: VIAR 011700Z 00000KT 2200 BR SCT090 14/12 Q1015 NOSIG

Hora: 22:44 (17:14 UTC)

Pronòstic

L'informe es va fer fa 3 hores i 14 minuts, a les 14:00 UTC
Pronòstic vàlid del 01 a les 15 UTC al 01 a les 24 UTC
Vent 2 kt amb direcció variable
Visibilitat: 2000 m
Escasses núvols a una alçada de 3000 ft
Núvols disperses a una alçada de 9000 ft
boirina
Evolucionant progressivament
l' 01 a les 19 UTC al 01 a les 21 UTC
Vent kt del Nord
Visibilitat: 1200 m
boirina

TAF: VIAR 011400Z 0115/0124 VRB02KT 2000 BR FEW030 SCT090 BECMG 0119/0121 00000KT 1200 BR

Observacions i pronòstics meteorològics de més de 4000 aeroports (METAR i TAF).

Les estacions disponibles són els punts grocs i vermells al mapa.

Posi el ratolí al punt desitjat per veure el nom de l'estació.

Feu clic per veure les observacions i els pronòstics meteorològics.

Per canviar el mapa: feu clic els botons verds amb una creu de color negre per apropar; al botó verd amb un guió per allunyar la imatge; o en les fletxes verdes per a mapes adjacents.


METAR-TAF: